Time;durP1;ratioP1;P1;durP2;ratioP2;P2;SDS_P1;SDS_P2;PMS_P1;PMS_P2;Temp;Humidity;BMP_temperature;BMP_pressure;BME280_temperature;BME280_humidity;BME280_pressure;Samples;Min_cycle;Max_cycle;Signal;HPM_P1;HPM_P2
2022/12/10 00:01:39;;;;;;;40.12;27.62;;;23.40;93.40;;;;;;1843064;77;21193;-84
2022/12/10 00:04:10;;;;;;;40.90;29.15;;;23.40;93.70;;;;;;1851524;75;21075;-84
2022/12/10 00:06:41;;;;;;;42.45;28.67;;;23.40;93.40;;;;;;1848831;77;21178;-84
2022/12/10 00:09:14;;;;;;;29.77;22.07;;;23.40;93.60;;;;;;1842001;76;21087;-84
2022/12/10 00:11:45;;;;;;;39.45;28.20;;;23.40;93.70;;;;;;1842162;77;21614;-70
2022/12/10 00:14:20;;;;;;;36.77;25.82;;;23.40;93.90;;;;;;1842468;77;21606;-69
2022/12/10 00:16:51;;;;;;;40.10;27.77;;;23.40;94.10;;;;;;1836913;77;21626;-70
2022/12/10 00:19:22;;;;;;;39.27;25.97;;;23.40;94.40;;;;;;1834551;77;21154;-70
2022/12/10 00:21:54;;;;;;;30.10;22.20;;;23.40;94.50;;;;;;1848445;77;21162;-70
2022/12/10 00:24:26;;;;;;;35.58;27.65;;;23.40;94.40;;;;;;1857626;77;21077;-70
2022/12/10 00:26:57;;;;;;;22.45;17.17;;;23.40;94.20;;;;;;1851012;77;21543;-71
2022/12/10 00:29:27;;;;;;;27.67;20.52;;;23.40;94.00;;;;;;1854381;75;21590;-70
2022/12/10 00:31:58;;;;;;;25.32;17.82;;;23.40;94.00;;;;;;1837767;77;21233;-71
2022/12/10 00:34:29;;;;;;;32.88;24.50;;;23.30;94.00;;;;;;1856204;77;21203;-71
2022/12/10 00:37:00;;;;;;;32.53;24.72;;;23.40;94.10;;;;;;1841213;77;21047;-71
2022/12/10 00:39:30;;;;;;;35.80;18.40;;;23.40;94.20;;;;;;1847924;77;21178;-71
2022/12/10 00:42:01;;;;;;;29.20;18.70;;;23.40;94.00;;;;;;1843319;77;21649;-71
2022/12/10 00:44:33;;;;;;;27.10;19.42;;;23.40;94.00;;;;;;1848609;77;21109;-71
2022/12/10 00:47:04;;;;;;;29.75;17.02;;;23.40;94.00;;;;;;1849582;77;21536;-71
2022/12/10 00:49:34;;;;;;;22.85;16.17;;;23.40;93.90;;;;;;1852924;77;21112;-69
2022/12/10 00:52:06;;;;;;;22.10;15.60;;;23.50;93.70;;;;;;1851591;75;21087;-70
2022/12/10 00:54:38;;;;;;;22.60;15.85;;;23.50;93.50;;;;;;1861398;75;21232;-69
2022/12/10 00:57:09;;;;;;;23.35;15.55;;;23.60;93.60;;;;;;1849087;75;21072;-70
2022/12/10 00:59:40;;;;;;;20.92;15.60;;;23.70;93.30;;;;;;1858764;76;21185;-70
2022/12/10 01:02:11;;;;;;;20.32;13.80;;;23.70;93.20;;;;;;1841856;76;21150;-70
2022/12/10 01:04:42;;;;;;;20.37;14.83;;;23.80;93.00;;;;;;1860599;76;21162;-69
2022/12/10 01:07:13;;;;;;;21.15;15.08;;;23.80;93.20;;;;;;1851001;77;21047;-70
2022/12/10 01:09:45;;;;;;;18.98;14.68;;;23.80;93.10;;;;;;1877723;76;21212;-70
2022/12/10 01:12:15;;;;;;;22.20;14.05;;;23.80;93.10;;;;;;1884798;74;21260;-69
2022/12/10 01:14:46;;;;;;;16.70;12.65;;;23.90;93.10;;;;;;1881893;74;21120;-70
2022/12/10 01:17:17;;;;;;;15.70;12.43;;;23.90;92.60;;;;;;1885932;74;21601;-70
2022/12/10 01:19:49;;;;;;;18.12;13.50;;;23.90;92.50;;;;;;1878670;74;21637;-70
2022/12/10 01:22:21;;;;;;;16.57;11.97;;;24.00;92.40;;;;;;1874400;74;21143;-69
2022/12/10 01:24:54;;;;;;;16.45;12.23;;;24.00;91.90;;;;;;1881482;74;21181;-70
2022/12/10 01:27:26;;;;;;;15.03;11.57;;;24.00;91.70;;;;;;1887254;74;21144;-70
2022/12/10 01:29:57;;;;;;;14.75;11.20;;;24.10;91.40;;;;;;1882826;74;21164;-69
2022/12/10 01:32:28;;;;;;;15.10;11.85;;;24.10;91.30;;;;;;1881552;74;21222;-69
2022/12/10 01:35:00;;;;;;;22.80;13.78;;;24.20;91.40;;;;;;1876559;75;21652;-69
2022/12/10 01:37:31;;;;;;;17.07;12.47;;;24.20;91.50;;;;;;1882396;74;21189;-67
2022/12/10 01:40:02;;;;;;;17.37;11.83;;;24.20;91.30;;;;;;1881067;74;21152;-69
2022/12/10 01:42:36;;;;;;;15.32;12.43;;;24.30;91.40;;;;;;1829318;76;21183;-68
2022/12/10 01:45:12;;;;;;;17.17;11.73;;;24.30;91.30;;;;;;1873818;74;21143;-69
2022/12/10 01:47:46;;;;;;;18.60;12.98;;;24.40;91.30;;;;;;1874101;75;21115;-69
2022/12/10 01:50:20;;;;;;;16.50;12.40;;;24.50;91.30;;;;;;1837117;77;21688;-68
2022/12/10 01:52:51;;;;;;;15.65;12.37;;;24.50;91.10;;;;;;1820585;77;21241;-70
2022/12/10 01:55:47;;;;;;;17.15;12.35;;;24.60;91.10;;;;;;1878254;75;21153;-69
2022/12/10 01:58:20;;;;;;;16.48;11.78;;;24.60;90.90;;;;;;1881207;74;21149;-70
2022/12/10 02:00:59;;;;;;;18.40;12.65;;;24.70;90.90;;;;;;1883770;74;21149;-70
2022/12/10 02:03:32;;;;;;;17.87;13.28;;;24.80;91.10;;;;;;1874487;74;21183;-70
2022/12/10 02:06:09;;;;;;;17.95;12.68;;;24.80;91.10;;;;;;1885405;74;21687;-70
2022/12/10 02:08:42;;;;;;;17.20;13.13;;;24.80;91.10;;;;;;1888350;74;21173;-71
2022/12/10 02:11:19;;;;;;;16.30;12.82;;;24.80;91.10;;;;;;1877061;74;21249;-71
2022/12/10 02:13:52;;;;;;;16.85;11.85;;;24.80;91.00;;;;;;1884873;74;21177;-70
2022/12/10 02:16:31;;;;;;;16.27;12.28;;;24.80;91.10;;;;;;1879692;74;21188;-70
2022/12/10 02:19:16;;;;;;;14.35;10.63;;;24.80;91.10;;;;;;1888023;74;21127;-70
2022/12/10 02:21:50;;;;;;;12.65;10.35;;;24.80;90.60;;;;;;1891038;74;21174;-68
2022/12/10 02:24:27;;;;;;;12.80;10.30;;;25.00;90.40;;;;;;1874533;74;21596;-69
2022/12/10 02:27:21;;;;;;;13.40;10.23;;;25.00;90.30;;;;;;1869042;76;21093;-69
2022/12/10 02:29:53;;;;;;;12.00;9.08;;;25.10;90.10;;;;;;1894872;74;21145;-71
2022/12/10 02:32:26;;;;;;;11.65;9.20;;;25.20;89.50;;;;;;1881636;76;21141;-70
2022/12/10 02:35:00;;;;;;;12.53;9.18;;;25.30;89.50;;;;;;1875373;74;21125;-71
2022/12/10 02:37:35;;;;;;;13.05;10.00;;;25.30;89.30;;;;;;1822298;77;21203;-69
2022/12/10 02:40:09;;;;;;;14.15;10.03;;;25.40;88.80;;;;;;1882523;75;21660;-70
2022/12/10 02:42:42;;;;;;;12.73;9.70;;;25.40;88.90;;;;;;1882165;74;21160;-70
2022/12/10 02:45:14;;;;;;;20.27;10.13;;;25.50;89.10;;;;;;1882320;76;21180;-71
2022/12/10 02:47:47;;;;;;;12.00;9.38;;;25.50;88.70;;;;;;1883023;74;21575;-70
2022/12/10 02:50:20;;;;;;;16.52;10.58;;;25.60;88.30;;;;;;1883121;75;21194;-71
2022/12/10 02:52:51;;;;;;;12.35;9.05;;;25.60;88.10;;;;;;1887039;75;21225;-71
2022/12/10 02:55:22;;;;;;;12.45;9.60;;;25.70;87.80;;;;;;1876772;74;21195;-70
2022/12/10 02:58:15;;;;;;;11.57;9.28;;;25.70;87.60;;;;;;1881096;76;21222;-71
2022/12/10 03:00:51;;;;;;;14.47;9.78;;;25.80;87.60;;;;;;1891274;75;21164;-71
2022/12/10 03:03:24;;;;;;;14.50;9.98;;;25.90;87.40;;;;;;1880068;76;21208;-71
2022/12/10 03:06:07;;;;;;;12.85;9.65;;;26.00;87.10;;;;;;1880535;74;21137;-70
2022/12/10 03:08:53;;;;;;;13.10;9.18;;;26.10;87.40;;;;;;1876369;74;21188;-70
2022/12/10 03:11:26;;;;;;;15.15;9.55;;;26.20;86.60;;;;;;1882993;74;21652;-71
2022/12/10 03:13:59;;;;;;;13.93;9.48;;;26.30;86.90;;;;;;1878007;75;21427;-71
2022/12/10 03:16:38;;;;;;;13.38;9.30;;;26.30;86.70;;;;;;1874022;74;21141;-70
2022/12/10 03:19:18;;;;;;;11.75;8.75;;;26.40;86.70;;;;;;1885454;74;21177;-71
2022/12/10 03:21:51;;;;;;;12.68;10.08;;;26.40;85.80;;;;;;1882919;74;22166;-71
2022/12/10 03:24:28;;;;;;;13.18;8.68;;;26.50;86.10;;;;;;1875051;74;21642;-71
2022/12/10 03:27:05;;;;;;;11.75;9.45;;;26.60;85.80;;;;;;1874956;75;21152;-71
2022/12/10 03:29:55;;;;;;;12.10;9.90;;;26.70;86.00;;;;;;1886302;75;21196;-69
2022/12/10 03:32:29;;;;;;;16.02;8.95;;;26.80;85.60;;;;;;1878692;75;21113;-70
2022/12/10 03:35:02;;;;;;;10.82;9.13;;;26.80;85.30;;;;;;1878349;75;21137;-71
2022/12/10 03:37:34;;;;;;;13.75;8.63;;;26.80;84.90;;;;;;1873392;75;21214;-71
2022/12/10 03:40:06;;;;;;;14.45;9.03;;;26.90;84.50;;;;;;1874997;75;21219;-71
2022/12/10 03:42:40;;;;;;;12.73;8.95;;;27.00;84.40;;;;;;1891070;74;21247;-70
2022/12/10 03:45:11;;;;;;;13.13;8.75;;;27.10;84.50;;;;;;1888014;75;21140;-71
2022/12/10 03:47:43;;;;;;;13.10;8.93;;;27.20;84.20;;;;;;1876047;74;21149;-70
2022/12/10 03:50:15;;;;;;;11.60;8.53;;;27.30;83.80;;;;;;1877086;74;21223;-70
2022/12/10 03:52:46;;;;;;;14.40;9.43;;;27.40;82.90;;;;;;1885643;75;21192;-71
2022/12/10 03:55:17;;;;;;;13.20;8.73;;;27.50;82.70;;;;;;1887013;75;21777;-71
2022/12/10 03:57:48;;;;;;;11.33;7.97;;;27.60;82.70;;;;;;1888269;74;21252;-71
2022/12/10 04:00:19;;;;;;;10.10;7.97;;;27.70;82.40;;;;;;1889227;75;21147;-72
2022/12/10 04:02:50;;;;;;;11.20;8.53;;;27.80;82.30;;;;;;1879307;75;21632;-72
2022/12/10 04:05:21;;;;;;;13.45;8.55;;;27.80;82.00;;;;;;1870315;74;21213;-71
2022/12/10 04:07:53;;;;;;;12.00;8.15;;;28.00;80.90;;;;;;1877170;75;21708;-72
2022/12/10 04:10:24;;;;;;;12.55;8.45;;;28.00;80.90;;;;;;1887950;74;21082;-71
2022/12/10 04:18:35;;;;;;;11.00;7.53;;;28.20;80.70;;;;;;1849756;76;21179;-71
2022/12/10 04:27:03;;;;;;;12.05;7.25;;;28.50;79.00;;;;;;1883294;74;21628;-73
2022/12/10 04:29:25;;;;;;;9.70;7.72;;;28.50;77.70;;;;;;1877346;75;22290;-72
2022/12/10 04:31:57;;;;;;;8.98;6.75;;;28.60;77.80;;;;;;1878249;74;21181;-72
2022/12/10 04:34:28;;;;;;;10.55;7.67;;;28.70;78.20;;;;;;1828554;77;21616;-72
2022/12/10 04:37:00;;;;;;;10.08;6.95;;;28.80;77.60;;;;;;1829376;77;22343;-73
2022/12/10 04:39:35;;;;;;;9.95;7.45;;;28.80;77.20;;;;;;1817761;77;21104;-72
2022/12/10 04:42:06;;;;;;;10.38;7.08;;;28.90;77.40;;;;;;1878083;74;21141;-72
2022/12/10 04:44:37;;;;;;;10.38;6.95;;;29.00;76.60;;;;;;1875421;76;21098;-72
2022/12/10 04:47:10;;;;;;;8.75;6.58;;;29.00;76.70;;;;;;1884201;75;21250;-71
2022/12/10 04:49:41;;;;;;;12.58;7.30;;;29.10;76.00;;;;;;1870095;74;21141;-73
2022/12/10 04:52:15;;;;;;;10.03;6.25;;;29.10;76.00;;;;;;1874351;75;21724;-73
2022/12/10 04:54:45;;;;;;;9.65;6.37;;;29.20;76.40;;;;;;1880644;75;21050;-72
2022/12/10 04:57:16;;;;;;;8.18;6.20;;;29.30;75.00;;;;;;1877009;76;21117;-73
2022/12/10 04:59:47;;;;;;;9.95;6.45;;;29.30;75.40;;;;;;1889381;75;21542;-73
2022/12/10 05:02:17;;;;;;;8.80;5.85;;;29.40;74.50;;;;;;1880351;74;21109;-73
2022/12/10 05:04:50;;;;;;;10.35;6.35;;;29.40;74.70;;;;;;1882919;74;21148;-73
2022/12/10 05:07:21;;;;;;;7.47;5.97;;;29.50;74.20;;;;;;1871564;76;21221;-72
2022/12/10 05:09:52;;;;;;;8.98;6.40;;;29.60;74.70;;;;;;1845643;75;21154;-72
2022/12/10 05:12:22;;;;;;;8.68;6.58;;;29.70;74.90;;;;;;1859889;76;21149;-72
2022/12/10 05:14:53;;;;;;;10.00;5.97;;;29.70;74.60;;;;;;1852343;77;21114;-73
2022/12/10 05:17:25;;;;;;;10.10;6.35;;;29.90;74.20;;;;;;1845678;77;21203;-73
2022/12/10 05:19:55;;;;;;;9.00;7.03;;;30.00;74.40;;;;;;1855386;77;21748;-73
2022/12/10 05:25:15;;;;;;;7.78;5.75;;;30.20;72.40;;;;;;1860120;77;21629;-73
2022/12/10 05:27:47;;;;;;;7.85;6.47;;;30.20;72.90;;;;;;1854984;77;21132;-73
2022/12/10 05:30:18;;;;;;;9.30;5.70;;;30.20;72.60;;;;;;1860259;75;21594;-73
2022/12/10 05:32:50;;;;;;;9.13;6.50;;;30.20;73.00;;;;;;1853803;77;21182;-73
2022/12/10 05:35:22;;;;;;;8.05;6.45;;;30.10;72.70;;;;;;1768577;79;21171;-74
2022/12/10 05:37:56;;;;;;;8.78;6.80;;;30.20;72.00;;;;;;1856661;77;21064;-73
2022/12/10 05:40:28;;;;;;;9.48;6.67;;;30.20;71.60;;;;;;1855228;77;21217;-72
2022/12/10 05:43:03;;;;;;;8.40;6.05;;;30.20;71.50;;;;;;1856226;77;21216;-72
2022/12/10 05:45:34;;;;;;;9.58;6.75;;;30.20;72.30;;;;;;1848201;77;21193;-71
2022/12/10 05:48:06;;;;;;;9.50;6.58;;;30.30;71.40;;;;;;1850305;77;21715;-73
2022/12/10 05:50:37;;;;;;;10.40;6.17;;;30.40;71.60;;;;;;1815433;77;21764;-72
2022/12/10 05:53:13;;;;;;;11.00;6.62;;;30.40;71.20;;;;;;1848564;75;21862;-72
2022/12/10 05:55:44;;;;;;;12.45;7.35;;;30.50;70.70;;;;;;1854297;77;21075;-73
2022/12/10 05:58:14;;;;;;;7.90;6.70;;;30.50;69.80;;;;;;1851801;77;21252;-72
2022/12/10 06:00:45;;;;;;;9.50;6.80;;;30.50;70.60;;;;;;1836849;77;21126;-72
2022/12/10 06:03:23;;;;;;;8.55;5.65;;;30.50;70.20;;;;;;1860437;77;21196;-73
2022/12/10 06:05:50;;;;;;;10.32;6.22;;;30.50;70.20;;;;;;1857112;75;21150;-72
2022/12/10 06:08:24;;;;;;;10.20;6.35;;;30.60;69.40;;;;;;1849463;76;21149;-73
2022/12/10 06:10:56;;;;;;;9.63;6.30;;;30.70;69.50;;;;;;1871670;76;21062;-83
2022/12/10 06:13:28;;;;;;;8.75;6.33;;;30.60;69.00;;;;;;1797897;77;21159;-84
2022/12/10 06:15:59;;;;;;;8.95;6.85;;;30.60;69.60;;;;;;1828442;77;21271;-81
2022/12/10 06:18:30;;;;;;;11.03;6.72;;;30.60;69.80;;;;;;1903093;74;21121;-83
2022/12/10 06:21:10;;;;;;;8.53;6.10;;;30.60;69.60;;;;;;1902692;74;21599;-84
2022/12/10 06:23:41;;;;;;;9.90;6.90;;;30.70;69.60;;;;;;1875124;75;21097;-83
2022/12/10 06:26:23;;;;;;;11.53;6.33;;;30.70;68.70;;;;;;1897287;74;21169;-84
2022/12/10 06:28:52;;;;;;;8.60;6.62;;;30.80;68.50;;;;;;1842265;76;21105;-82
2022/12/10 06:31:26;;;;;;;10.03;6.47;;;30.80;68.60;;;;;;1894106;76;21063;-84
2022/12/10 06:33:56;;;;;;;10.53;6.50;;;30.80;68.40;;;;;;1891162;76;21129;-83
2022/12/10 06:36:27;;;;;;;9.50;6.10;;;30.80;68.60;;;;;;1894916;74;21149;-83
2022/12/10 06:38:58;;;;;;;9.95;6.05;;;30.80;68.60;;;;;;1878184;74;21079;-83
2022/12/10 06:41:29;;;;;;;6.90;5.42;;;30.80;68.40;;;;;;1889493;75;21162;-84
2022/12/10 06:43:59;;;;;;;7.17;5.55;;;30.90;68.20;;;;;;1885897;75;21104;-85
2022/12/10 06:46:30;;;;;;;9.55;5.35;;;30.90;67.70;;;;;;1880724;75;21207;-86
2022/12/10 06:49:02;;;;;;;8.85;6.05;;;31.00;68.10;;;;;;1875479;76;21632;-84
2022/12/10 06:51:33;;;;;;;9.75;6.28;;;31.00;68.50;;;;;;1865113;75;21081;-84
2022/12/10 06:54:04;;;;;;;7.78;5.78;;;31.00;67.90;;;;;;1884860;76;21117;-83
2022/12/10 06:56:35;;;;;;;11.45;6.42;;;31.00;69.20;;;;;;1885240;76;21447;-82
2022/12/10 06:59:09;;;;;;;9.13;6.20;;;31.00;68.30;;;;;;1879169;76;21176;-83
2022/12/10 07:01:40;;;;;;;8.93;6.40;;;30.90;68.10;;;;;;1880521;74;21522;-84
2022/12/10 07:04:14;;;;;;;9.13;6.28;;;31.00;68.50;;;;;;1876453;74;21131;-84
2022/12/10 07:06:45;;;;;;;8.28;6.60;;;31.00;67.90;;;;;;1885078;76;21074;-84
2022/12/10 07:09:17;;;;;;;7.95;6.05;;;31.00;67.40;;;;;;1873552;74;21220;-85
2022/12/10 07:11:48;;;;;;;9.48;6.12;;;31.00;67.40;;;;;;1837921;77;21108;-81
2022/12/10 07:14:19;;;;;;;8.28;6.40;;;31.00;67.70;;;;;;1851251;76;21132;-83
2022/12/10 07:16:49;;;;;;;5.95;5.35;;;31.00;67.90;;;;;;1860314;75;21222;-84
2022/12/10 07:19:20;;;;;;;9.55;6.65;;;31.00;67.70;;;;;;1864072;77;21228;-83
2022/12/10 07:21:51;;;;;;;8.08;5.87;;;31.10;67.30;;;;;;1849636;77;21063;-83
2022/12/10 07:24:22;;;;;;;10.15;5.72;;;31.10;67.10;;;;;;1774862;80;21556;-83
2022/12/10 07:26:53;;;;;;;8.15;5.42;;;31.20;68.70;;;;;;1849892;77;21180;-83
2022/12/10 07:29:26;;;;;;;10.60;5.78;;;31.20;67.30;;;;;;1842617;77;21143;-85
2022/12/10 07:31:56;;;;;;;13.30;6.90;;;31.20;67.20;;;;;;1827968;77;21277;-83
2022/12/10 07:34:28;;;;;;;7.00;6.10;;;31.20;67.40;;;;;;1832658;77;21129;-81
2022/12/10 07:36:59;;;;;;;7.83;6.60;;;31.20;67.20;;;;;;1783309;80;21209;-81
2022/12/10 07:39:30;;;;;;;7.70;5.58;;;31.20;67.70;;;;;;1853870;75;21534;-82
2022/12/10 07:42:00;;;;;;;8.23;5.40;;;31.10;67.30;;;;;;1851470;77;21185;-83
2022/12/10 07:44:31;;;;;;;8.88;5.30;;;31.10;67.40;;;;;;1860407;77;21150;-82
2022/12/10 07:47:03;;;;;;;9.33;5.58;;;31.10;67.20;;;;;;1837153;77;21131;-82
2022/12/10 07:49:33;;;;;;;9.20;5.22;;;31.00;67.30;;;;;;1843819;77;21413;-83
2022/12/10 07:52:05;;;;;;;10.18;5.92;;;30.80;67.70;;;;;;1841384;77;21172;-81
2022/12/10 07:54:39;;;;;;;8.93;5.90;;;30.70;67.90;;;;;;1831992;77;21224;-82
2022/12/10 07:57:10;;;;;;;9.40;5.65;;;30.70;68.10;;;;;;1854309;77;21201;-81
2022/12/10 07:59:40;;;;;;;9.00;5.42;;;30.60;67.80;;;;;;1863804;77;21130;-81
2022/12/10 08:02:11;;;;;;;9.63;5.55;;;30.50;67.50;;;;;;1853939;77;21527;-79
2022/12/10 08:04:42;;;;;;;10.43;5.72;;;30.50;68.40;;;;;;1830834;78;21988;-81
2022/12/10 08:07:13;;;;;;;8.18;5.67;;;30.50;68.50;;;;;;1839002;77;21251;-81
2022/12/10 08:09:47;;;;;;;8.05;5.35;;;30.50;67.90;;;;;;1849601;76;21161;-80
2022/12/10 08:12:17;;;;;;;7.67;5.50;;;30.60;68.30;;;;;;1843049;77;21601;-83
2022/12/10 08:14:48;;;;;;;9.33;5.22;;;30.50;67.40;;;;;;1780754;80;21166;-81
2022/12/10 08:17:19;;;;;;;8.90;5.72;;;30.50;68.00;;;;;;1833394;78;21135;-81
2022/12/10 08:19:50;;;;;;;5.87;4.78;;;30.50;66.90;;;;;;1838325;75;21235;-82
2022/12/10 08:22:21;;;;;;;8.30;4.97;;;30.50;67.00;;;;;;1842448;77;21126;-81
2022/12/10 08:24:51;;;;;;;7.65;5.17;;;30.60;67.80;;;;;;1862852;77;21093;-80
2022/12/10 08:27:22;;;;;;;9.70;5.67;;;30.60;67.60;;;;;;1849937;77;21626;-80
2022/12/10 08:29:53;;;;;;;9.28;5.12;;;30.60;68.30;;;;;;1868847;76;21182;-80
2022/12/10 08:32:24;;;;;;;8.95;5.58;;;30.60;68.30;;;;;;1867868;77;21219;-81
2022/12/10 08:34:54;;;;;;;8.00;5.20;;;30.60;67.90;;;;;;1868587;77;21125;-83
2022/12/10 08:37:25;;;;;;;7.72;5.15;;;30.60;67.20;;;;;;1857662;77;21172;-84
2022/12/10 08:39:56;;;;;;;8.90;5.33;;;30.60;67.30;;;;;;1851061;77;21603;-83
2022/12/10 08:42:26;;;;;;;14.83;5.37;;;30.60;67.10;;;;;;1842197;75;21129;-81
2022/12/10 08:44:59;;;;;;;9.53;5.50;;;30.60;67.20;;;;;;1846464;75;21115;-79
2022/12/10 08:47:32;;;;;;;8.80;5.80;;;30.50;67.30;;;;;;1868133;75;21233;-71
2022/12/10 08:50:03;;;;;;;8.23;5.72;;;30.50;67.20;;;;;;1837625;77;21086;-70
2022/12/10 08:52:34;;;;;;;9.45;5.58;;;30.50;67.00;;;;;;1838726;77;21059;-71
2022/12/10 08:55:06;;;;;;;8.98;5.40;;;30.50;67.40;;;;;;1849393;75;21586;-70
2022/12/10 08:57:37;;;;;;;8.80;5.55;;;30.40;67.10;;;;;;1858160;75;21665;-71
2022/12/10 09:00:13;;;;;;;7.55;5.25;;;30.40;67.70;;;;;;1864286;77;21698;-77
2022/12/10 09:02:44;;;;;;;6.60;4.92;;;30.40;67.00;;;;;;1831109;77;21226;-77
2022/12/10 09:05:15;;;;;;;9.03;5.80;;;30.40;66.80;;;;;;1832818;78;21161;-76
2022/12/10 09:07:46;;;;;;;7.95;5.78;;;30.40;67.00;;;;;;1833020;78;21165;-78
2022/12/10 09:10:21;;;;;;;8.55;5.72;;;30.40;67.20;;;;;;1856539;76;21539;-78
2022/12/10 09:12:52;;;;;;;14.63;5.80;;;30.50;67.30;;;;;;1883530;74;21203;-78
2022/12/10 09:15:25;;;;;;;9.23;6.37;;;30.50;67.60;;;;;;1892752;74;21711;-76
2022/12/10 09:17:56;;;;;;;9.60;6.58;;;30.50;66.60;;;;;;1885975;74;21165;-77
2022/12/10 09:20:26;;;;;;;10.10;6.22;;;30.50;66.30;;;;;;1855441;76;21112;-78
2022/12/10 09:22:57;;;;;;;7.75;5.85;;;30.50;67.10;;;;;;1890434;74;21190;-77
2022/12/10 09:25:31;;;;;;;8.93;6.62;;;30.50;67.30;;;;;;1904537;74;21220;-76
2022/12/10 09:28:05;;;;;;;8.23;5.65;;;30.50;67.30;;;;;;1886964;74;21089;-78
2022/12/10 09:30:37;;;;;;;8.00;5.87;;;30.40;67.00;;;;;;1881413;74;21141;-77
2022/12/10 09:33:08;;;;;;;7.75;5.97;;;30.40;67.20;;;;;;1882466;74;21168;-77
2022/12/10 09:35:41;;;;;;;7.90;5.55;;;30.40;67.40;;;;;;1898919;74;21091;-78
2022/12/10 09:38:15;;;;;;;;;;;30.40;67.20;;;;;;1903092;73;21232;-77
2022/12/10 09:40:48;;;;;;;8.78;6.03;;;30.30;68.30;;;;;;1890765;74;20209;-75
2022/12/10 09:43:42;;;;;;;11.50;6.55;;;30.30;68.10;;;;;;1892527;74;21244;-76
2022/12/10 09:46:33;;;;;;;10.23;6.33;;;30.20;68.20;;;;;;1891417;74;21131;-79
2022/12/10 09:49:25;;;;;;;10.08;6.05;;;30.20;68.30;;;;;;1890659;74;21603;-78
2022/12/10 09:51:59;;;;;;;8.50;5.90;;;30.20;67.90;;;;;;1907592;74;21095;-79
2022/12/10 09:54:32;;;;;;;7.70;5.72;;;30.10;68.10;;;;;;1821840;77;21197;-79
2022/12/10 09:57:05;;;;;;;9.65;6.22;;;30.10;68.50;;;;;;1888699;74;21586;-78
2022/12/10 09:59:42;;;;;;;7.33;6.35;;;30.10;68.40;;;;;;1879959;74;21657;-80
2022/12/10 10:02:18;;;;;;;11.08;6.50;;;30.00;68.60;;;;;;1883270;74;21217;-80
2022/12/10 10:04:51;;;;;;;11.45;6.90;;;29.90;68.20;;;;;;1898219;74;21128;-76
2022/12/10 10:07:27;;;;;;;9.43;6.70;;;29.90;68.50;;;;;;1887755;74;21096;-80
2022/12/10 10:10:00;;;;;;;12.03;6.55;;;29.90;68.80;;;;;;1813532;77;21119;-80
2022/12/10 10:12:34;;;;;;;12.05;6.35;;;29.80;69.20;;;;;;1801276;79;21636;-78
2022/12/10 10:15:19;;;;;;;9.98;6.42;;;29.80;69.00;;;;;;1807739;79;21721;-78
2022/12/10 10:17:52;;;;;;;7.70;6.40;;;29.80;69.90;;;;;;1877270;75;21175;-80
2022/12/10 10:20:23;;;;;;;13.58;6.90;;;29.70;69.10;;;;;;1874904;75;21148;-78
2022/12/10 10:22:56;;;;;;;8.43;6.45;;;29.70;69.30;;;;;;1802306;78;21175;-79
2022/12/10 10:25:29;;;;;;;12.07;6.67;;;29.70;69.30;;;;;;1797246;78;21112;-79
2022/12/10 10:28:03;;;;;;;10.58;6.60;;;29.70;69.60;;;;;;1791572;78;21106;-79
2022/12/10 10:30:33;;;;;;;8.90;6.62;;;29.60;69.70;;;;;;1807609;78;21590;-79
2022/12/10 10:33:07;;;;;;;9.08;6.70;;;29.60;69.60;;;;;;1809240;78;21175;-79
2022/12/10 10:35:46;;;;;;;9.55;6.58;;;29.50;69.70;;;;;;1803776;78;21754;-79
2022/12/10 10:38:26;;;;;;;10.48;6.37;;;29.50;69.90;;;;;;1832250;78;21590;-81
2022/12/10 10:41:03;;;;;;;14.20;7.28;;;29.50;70.00;;;;;;1832111;78;21602;-79
2022/12/10 10:43:39;;;;;;;10.48;6.62;;;29.40;70.00;;;;;;1825790;78;21060;-79
2022/12/10 10:46:18;;;;;;;8.13;6.25;;;29.40;70.30;;;;;;1868868;75;21590;-79
2022/12/10 10:48:50;;;;;;;11.10;6.80;;;29.40;70.30;;;;;;1871834;75;21170;-80
2022/12/10 10:51:25;;;;;;;15.50;6.97;;;29.30;70.20;;;;;;1882189;75;21741;-80
2022/12/10 10:53:59;;;;;;;9.78;6.92;;;29.30;70.30;;;;;;1876362;75;21142;-79
2022/12/10 10:56:47;;;;;;;10.43;6.85;;;29.30;70.30;;;;;;1875551;75;21103;-80
2022/12/10 10:59:30;;;;;;;11.35;6.97;;;29.30;70.40;;;;;;1873996;75;21244;-79
2022/12/10 11:02:04;;;;;;;13.88;9.45;;;29.20;70.30;;;;;;1871177;75;21167;-78
2022/12/10 11:04:40;;;;;;;18.52;11.80;;;29.30;70.70;;;;;;1801974;78;21184;-78
2022/12/10 11:07:14;;;;;;;22.35;13.25;;;29.30;70.90;;;;;;1782436;78;21241;-78
2022/12/10 11:09:46;;;;;;;14.25;8.85;;;29.20;70.80;;;;;;1762972;79;21178;-79
2022/12/10 11:12:32;;;;;;;14.70;9.00;;;29.30;70.90;;;;;;1827782;77;21181;-80
2022/12/10 11:15:24;;;;;;;17.33;10.73;;;29.20;70.80;;;;;;1816332;77;21154;-79
2022/12/10 11:17:56;;;;;;;14.10;9.13;;;29.20;71.30;;;;;;1779520;80;21469;-79
2022/12/10 11:20:35;;;;;;;13.35;9.35;;;29.20;71.90;;;;;;1816510;77;21784;-79
2022/12/10 11:23:13;;;;;;;16.17;9.70;;;29.10;72.10;;;;;;1817356;77;21422;-79
2022/12/10 11:25:52;;;;;;;19.48;11.50;;;29.10;72.50;;;;;;1824241;78;21260;-79
2022/12/10 11:28:31;;;;;;;17.62;10.05;;;29.10;72.60;;;;;;1806689;78;21182;-78
2022/12/10 11:31:13;;;;;;;18.90;10.20;;;29.10;72.80;;;;;;1810275;78;21178;-78
2022/12/10 11:34:02;;;;;;;15.88;10.68;;;29.10;72.90;;;;;;1791823;79;21217;-79
2022/12/10 11:37:09;;;;;;;15.88;10.85;;;29.00;72.90;;;;;;1790076;79;21194;-79
2022/12/10 11:39:56;;;;;;;17.27;10.50;;;29.00;72.80;;;;;;1865774;75;21276;-79
2022/12/10 11:42:35;;;;;;;16.65;10.75;;;28.90;72.80;;;;;;1872930;76;21444;-79
2022/12/10 11:45:23;;;;;;;16.23;10.55;;;28.90;72.80;;;;;;1869562;76;21121;-79
2022/12/10 11:48:12;;;;;;;16.90;10.20;;;28.90;72.90;;;;;;1817612;76;21653;-79
2022/12/10 11:50:48;;;;;;;19.62;11.73;;;28.90;73.00;;;;;;1789126;76;21609;-79
2022/12/10 11:53:40;;;;;;;18.17;10.93;;;28.90;73.10;;;;;;1874471;76;21162;-79
2022/12/10 11:56:13;;;;;;;18.60;11.40;;;28.90;73.30;;;;;;1872026;76;21618;-78
2022/12/10 11:59:22;;;;;;;16.82;11.63;;;28.80;73.30;;;;;;1869847;75;21174;-79
2022/12/10 12:02:25;;;;;;;18.65;10.82;;;28.80;73.60;;;;;;1824952;77;21693;-78
2022/12/10 12:05:17;;;;;;;16.85;11.53;;;28.80;73.60;;;;;;1865562;75;21151;-78
2022/12/10 12:07:50;;;;;;;17.77;11.10;;;28.80;73.80;;;;;;1861648;76;21139;-79
2022/12/10 12:10:50;;;;;;;16.02;10.68;;;28.80;74.00;;;;;;1807029;77;21225;-79
2022/12/10 12:13:34;;;;;;;14.38;11.05;;;28.70;73.90;;;;;;1859845;76;21558;-78
2022/12/10 12:16:16;;;;;;;15.83;10.45;;;28.70;73.90;;;;;;1858083;75;21166;-78
2022/12/10 12:19:08;;;;;;;16.62;10.65;;;28.70;74.00;;;;;;1867445;75;21466;-78
2022/12/10 12:21:43;;;;;;;16.50;10.93;;;28.70;74.00;;;;;;1871086;75;21634;-79
2022/12/10 12:24:28;;;;;;;19.98;11.78;;;28.60;73.90;;;;;;1857213;76;21238;-78
2022/12/10 12:27:05;;;;;;;18.37;12.17;;;28.60;73.90;;;;;;1863752;76;21531;-78
2022/12/10 12:29:38;;;;;;;18.50;12.53;;;28.60;74.00;;;;;;1861567;75;21890;-79
2022/12/10 12:32:24;;;;;;;23.60;14.15;;;28.60;74.00;;;;;;1860611;75;21154;-77
2022/12/10 12:35:14;;;;;;;21.05;14.03;;;28.50;73.80;;;;;;1869314;75;21071;-79
2022/12/10 12:37:50;;;;;;;18.70;13.98;;;28.50;73.90;;;;;;1863785;76;21186;-78
2022/12/10 12:40:31;;;;;;;17.42;13.43;;;28.50;73.80;;;;;;1856214;76;21146;-78
2022/12/10 12:43:16;;;;;;;20.45;14.07;;;28.40;73.50;;;;;;1864492;75;21111;-78
2022/12/10 12:45:49;;;;;;;21.02;14.23;;;28.40;73.50;;;;;;1863638;75;21216;-77
2022/12/10 12:48:31;;;;;;;19.55;12.90;;;28.40;73.20;;;;;;1861772;75;21150;-77
2022/12/10 12:54:08;;;;;;;21.42;13.08;;;28.40;73.40;;;;;;1870516;76;21178;-81
2022/12/10 12:56:51;;;;;;;15.70;12.33;;;28.40;73.40;;;;;;1868545;75;21062;-78
2022/12/10 12:59:33;;;;;;;19.15;12.80;;;28.40;73.40;;;;;;1810792;77;21114;-78
2022/12/10 13:02:25;;;;;;;16.80;12.75;;;28.30;73.40;;;;;;1868995;75;21119;-79
2022/12/10 13:05:00;;;;;;;18.62;11.97;;;28.30;73.40;;;;;;1879436;75;21133;-79
2022/12/10 13:07:33;;;;;;;17.50;12.20;;;28.30;73.40;;;;;;1863007;75;21134;-80
2022/12/10 13:10:15;;;;;;;17.27;12.10;;;28.30;73.70;;;;;;1864287;75;21091;-79
2022/12/10 13:12:50;;;;;;;13.83;10.90;;;28.30;73.70;;;;;;1871906;76;21202;-78
2022/12/10 13:15:35;;;;;;;18.00;11.60;;;28.30;73.80;;;;;;1836710;77;21093;-77
2022/12/10 13:18:20;;;;;;;12.88;10.45;;;28.20;73.80;;;;;;1814064;77;21206;-80
2022/12/10 13:20:56;;;;;;;17.15;11.03;;;28.20;73.80;;;;;;1809181;78;21142;-77
2022/12/10 13:23:31;;;;;;;17.62;10.82;;;28.20;73.90;;;;;;1816362;79;21174;-80
2022/12/10 13:26:03;;;;;;;17.87;11.35;;;28.20;74.00;;;;;;1803015;77;21158;-80
2022/12/10 13:28:51;;;;;;;13.43;9.80;;;28.20;74.80;;;;;;1792735;78;21625;-79
2022/12/10 13:31:36;;;;;;;14.00;9.78;;;28.10;73.70;;;;;;1808753;79;21157;-78
2022/12/10 13:34:22;;;;;;;15.75;9.80;;;28.10;73.70;;;;;;1773686;79;21202;-78